sensor_id;sensor_type;location;lat;lon;timestamp;temperature;humidity
32650;DHT22;19055;51.064;3.712;2022-08-30T00:00:13;19.80;94.40
32650;DHT22;19055;51.064;3.712;2022-08-30T00:02:59;19.70;94.70
32650;DHT22;19055;51.064;3.712;2022-08-30T00:05:29;19.70;94.70
32650;DHT22;19055;51.064;3.712;2022-08-30T00:07:56;19.70;94.90
32650;DHT22;19055;51.064;3.712;2022-08-30T00:10:22;19.70;94.90
32650;DHT22;19055;51.064;3.712;2022-08-30T00:12:49;19.70;94.80
32650;DHT22;19055;51.064;3.712;2022-08-30T00:15:16;19.70;95.00
32650;DHT22;19055;51.064;3.712;2022-08-30T00:17:42;19.70;95.10
32650;DHT22;19055;51.064;3.712;2022-08-30T00:20:14;19.70;95.10
32650;DHT22;19055;51.064;3.712;2022-08-30T00:22:40;19.70;95.10
32650;DHT22;19055;51.064;3.712;2022-08-30T00:25:07;19.60;95.30
32650;DHT22;19055;51.064;3.712;2022-08-30T00:27:33;19.60;95.40
32650;DHT22;19055;51.064;3.712;2022-08-30T00:29:59;19.60;95.40
32650;DHT22;19055;51.064;3.712;2022-08-30T00:32:25;19.60;95.60
32650;DHT22;19055;51.064;3.712;2022-08-30T00:34:52;19.60;95.60
32650;DHT22;19055;51.064;3.712;2022-08-30T00:37:19;19.60;95.70
32650;DHT22;19055;51.064;3.712;2022-08-30T00:39:45;19.60;95.90
32650;DHT22;19055;51.064;3.712;2022-08-30T00:42:12;19.50;96.00
32650;DHT22;19055;51.064;3.712;2022-08-30T00:44:39;19.50;96.20
32650;DHT22;19055;51.064;3.712;2022-08-30T00:47:05;19.40;96.30
32650;DHT22;19055;51.064;3.712;2022-08-30T00:49:32;19.40;96.30
32650;DHT22;19055;51.064;3.712;2022-08-30T00:52:01;19.40;96.40
32650;DHT22;19055;51.064;3.712;2022-08-30T00:54:28;19.40;96.50
32650;DHT22;19055;51.064;3.712;2022-08-30T00:56:55;19.40;96.50
32650;DHT22;19055;51.064;3.712;2022-08-30T00:59:23;19.30;96.70
32650;DHT22;19055;51.064;3.712;2022-08-30T01:01:50;19.30;96.80
32650;DHT22;19055;51.064;3.712;2022-08-30T01:04:19;19.30;96.90
32650;DHT22;19055;51.064;3.712;2022-08-30T01:06:46;19.30;96.90
32650;DHT22;19055;51.064;3.712;2022-08-30T01:09:13;19.20;97.00
32650;DHT22;19055;51.064;3.712;2022-08-30T01:11:40;19.20;97.10
32650;DHT22;19055;51.064;3.712;2022-08-30T01:14:08;19.20;97.10
32650;DHT22;19055;51.064;3.712;2022-08-30T01:16:37;19.20;97.20
32650;DHT22;19055;51.064;3.712;2022-08-30T01:19:04;19.20;97.40
32650;DHT22;19055;51.064;3.712;2022-08-30T01:21:39;19.20;97.40
32650;DHT22;19055;51.064;3.712;2022-08-30T01:24:08;19.10;97.40
32650;DHT22;19055;51.064;3.712;2022-08-30T01:26:34;19.20;97.50
32650;DHT22;19055;51.064;3.712;2022-08-30T01:29:06;19.20;97.50
32650;DHT22;19055;51.064;3.712;2022-08-30T01:31:32;19.10;97.60
32650;DHT22;19055;51.064;3.712;2022-08-30T01:34:03;19.10;97.60
32650;DHT22;19055;51.064;3.712;2022-08-30T01:36:30;19.10;97.60
32650;DHT22;19055;51.064;3.712;2022-08-30T01:38:57;19.10;97.80
32650;DHT22;19055;51.064;3.712;2022-08-30T01:41:30;19.00;97.80
32650;DHT22;19055;51.064;3.712;2022-08-30T01:43:59;19.00;97.90
32650;DHT22;19055;51.064;3.712;2022-08-30T01:46:28;19.00;98.00
32650;DHT22;19055;51.064;3.712;2022-08-30T01:48:56;18.90;98.10
32650;DHT22;19055;51.064;3.712;2022-08-30T01:51:25;18.90;98.20
32650;DHT22;19055;51.064;3.712;2022-08-30T01:53:51;18.90;98.20
32650;DHT22;19055;51.064;3.712;2022-08-30T01:56:18;18.90;98.20
32650;DHT22;19055;51.064;3.712;2022-08-30T01:58:44;18.90;98.20
32650;DHT22;19055;51.064;3.712;2022-08-30T02:01:12;18.90;98.50
32650;DHT22;19055;51.064;3.712;2022-08-30T02:03:40;18.90;98.20
32650;DHT22;19055;51.064;3.712;2022-08-30T02:06:09;18.90;98.20
32650;DHT22;19055;51.064;3.712;2022-08-30T02:08:36;18.90;98.20
32650;DHT22;19055;51.064;3.712;2022-08-30T02:11:03;18.90;98.30
32650;DHT22;19055;51.064;3.712;2022-08-30T02:13:29;18.80;98.40
32650;DHT22;19055;51.064;3.712;2022-08-30T02:15:55;18.80;98.40
32650;DHT22;19055;51.064;3.712;2022-08-30T02:18:23;18.80;98.50
32650;DHT22;19055;51.064;3.712;2022-08-30T02:20:49;18.80;98.70
32650;DHT22;19055;51.064;3.712;2022-08-30T02:23:15;18.80;98.70
32650;DHT22;19055;51.064;3.712;2022-08-30T02:25:41;18.70;98.80
32650;DHT22;19055;51.064;3.712;2022-08-30T02:28:07;18.80;98.90
32650;DHT22;19055;51.064;3.712;2022-08-30T02:30:33;18.70;98.80
32650;DHT22;19055;51.064;3.712;2022-08-30T02:32:59;18.70;98.90
32650;DHT22;19055;51.064;3.712;2022-08-30T02:35:25;18.70;99.00
32650;DHT22;19055;51.064;3.712;2022-08-30T02:37:51;18.70;99.10
32650;DHT22;19055;51.064;3.712;2022-08-30T02:40:18;18.70;99.10
32650;DHT22;19055;51.064;3.712;2022-08-30T02:42:46;18.70;99.10
32650;DHT22;19055;51.064;3.712;2022-08-30T02:45:12;18.70;99.00
32650;DHT22;19055;51.064;3.712;2022-08-30T02:47:40;18.70;99.00
32650;DHT22;19055;51.064;3.712;2022-08-30T02:50:07;18.70;99.00
32650;DHT22;19055;51.064;3.712;2022-08-30T02:52:35;18.70;99.10
32650;DHT22;19055;51.064;3.712;2022-08-30T02:55:02;18.70;99.10
32650;DHT22;19055;51.064;3.712;2022-08-30T02:57:28;18.60;99.00
32650;DHT22;19055;51.064;3.712;2022-08-30T02:59:54;18.60;99.00
32650;DHT22;19055;51.064;3.712;2022-08-30T03:02:19;18.60;99.10
32650;DHT22;19055;51.064;3.712;2022-08-30T03:04:47;18.60;99.10
32650;DHT22;19055;51.064;3.712;2022-08-30T03:07:13;18.60;99.10
32650;DHT22;19055;51.064;3.712;2022-08-30T03:09:39;18.50;99.30
32650;DHT22;19055;51.064;3.712;2022-08-30T03:12:06;18.50;99.20
32650;DHT22;19055;51.064;3.712;2022-08-30T03:14:33;18.60;99.30
32650;DHT22;19055;51.064;3.712;2022-08-30T03:17:05;18.60;99.30
32650;DHT22;19055;51.064;3.712;2022-08-30T03:19:32;18.60;99.30
32650;DHT22;19055;51.064;3.712;2022-08-30T03:21:58;18.60;99.20
32650;DHT22;19055;51.064;3.712;2022-08-30T03:24:24;18.60;99.00
32650;DHT22;19055;51.064;3.712;2022-08-30T03:26:51;18.70;99.00
32650;DHT22;19055;51.064;3.712;2022-08-30T03:29:16;18.70;98.90
32650;DHT22;19055;51.064;3.712;2022-08-30T03:31:42;18.70;98.90
32650;DHT22;19055;51.064;3.712;2022-08-30T03:34:08;18.70;98.80
32650;DHT22;19055;51.064;3.712;2022-08-30T03:36:36;18.70;98.80
32650;DHT22;19055;51.064;3.712;2022-08-30T03:39:05;18.70;98.80
32650;DHT22;19055;51.064;3.712;2022-08-30T03:41:31;18.60;98.90
32650;DHT22;19055;51.064;3.712;2022-08-30T03:43:58;18.60;98.90
32650;DHT22;19055;51.064;3.712;2022-08-30T03:46:23;18.70;98.90
32650;DHT22;19055;51.064;3.712;2022-08-30T03:48:49;18.70;98.90
32650;DHT22;19055;51.064;3.712;2022-08-30T03:51:17;18.70;98.80
32650;DHT22;19055;51.064;3.712;2022-08-30T03:53:43;18.60;99.00
32650;DHT22;19055;51.064;3.712;2022-08-30T03:56:09;18.60;99.00
32650;DHT22;19055;51.064;3.712;2022-08-30T03:58:35;18.60;98.90
32650;DHT22;19055;51.064;3.712;2022-08-30T04:01:01;18.60;98.90
32650;DHT22;19055;51.064;3.712;2022-08-30T04:03:27;18.60;99.00
32650;DHT22;19055;51.064;3.712;2022-08-30T04:05:53;18.60;98.90
32650;DHT22;19055;51.064;3.712;2022-08-30T04:08:19;18.60;99.00
32650;DHT22;19055;51.064;3.712;2022-08-30T04:10:45;18.60;99.10
32650;DHT22;19055;51.064;3.712;2022-08-30T04:13:13;18.50;99.20
32650;DHT22;19055;51.064;3.712;2022-08-30T04:15:39;18.50;99.10
32650;DHT22;19055;51.064;3.712;2022-08-30T04:18:05;18.50;99.20
32650;DHT22;19055;51.064;3.712;2022-08-30T04:20:31;18.40;99.40
32650;DHT22;19055;51.064;3.712;2022-08-30T04:22:56;18.40;99.80
32650;DHT22;19055;51.064;3.712;2022-08-30T04:25:23;18.30;99.70
32650;DHT22;19055;51.064;3.712;2022-08-30T04:27:48;18.30;99.80
32650;DHT22;19055;51.064;3.712;2022-08-30T04:30:15;18.20;99.90
32650;DHT22;19055;51.064;3.712;2022-08-30T04:32:42;18.20;99.90
32650;DHT22;19055;51.064;3.712;2022-08-30T04:35:09;18.20;99.90
32650;DHT22;19055;51.064;3.712;2022-08-30T04:37:35;18.20;99.90
32650;DHT22;19055;51.064;3.712;2022-08-30T04:40:01;18.20;99.90
32650;DHT22;19055;51.064;3.712;2022-08-30T04:42:30;18.20;99.90
32650;DHT22;19055;51.064;3.712;2022-08-30T04:44:58;18.30;99.90
32650;DHT22;19055;51.064;3.712;2022-08-30T04:47:25;18.30;99.90
32650;DHT22;19055;51.064;3.712;2022-08-30T04:49:51;18.30;99.90
32650;DHT22;19055;51.064;3.712;2022-08-30T04:52:17;18.30;99.90
32650;DHT22;19055;51.064;3.712;2022-08-30T04:54:43;18.30;99.90
32650;DHT22;19055;51.064;3.712;2022-08-30T04:57:09;18.30;99.90
32650;DHT22;19055;51.064;3.712;2022-08-30T04:59:35;18.30;99.90
32650;DHT22;19055;51.064;3.712;2022-08-30T05:02:02;18.30;99.90
32650;DHT22;19055;51.064;3.712;2022-08-30T05:04:28;18.20;99.90
32650;DHT22;19055;51.064;3.712;2022-08-30T05:06:54;18.30;99.90
32650;DHT22;19055;51.064;3.712;2022-08-30T05:09:19;18.30;99.90
32650;DHT22;19055;51.064;3.712;2022-08-30T05:11:46;18.20;99.90
32650;DHT22;19055;51.064;3.712;2022-08-30T05:14:12;18.30;99.90
32650;DHT22;19055;51.064;3.712;2022-08-30T05:16:38;18.20;99.90
32650;DHT22;19055;51.064;3.712;2022-08-30T05:19:05;18.20;99.90
32650;DHT22;19055;51.064;3.712;2022-08-30T05:21:32;18.30;99.90
32650;DHT22;19055;51.064;3.712;2022-08-30T05:23:59;18.30;99.90
32650;DHT22;19055;51.064;3.712;2022-08-30T05:26:28;18.20;99.90
32650;DHT22;19055;51.064;3.712;2022-08-30T05:28:55;18.30;99.90
32650;DHT22;19055;51.064;3.712;2022-08-30T05:31:24;18.30;99.90
32650;DHT22;19055;51.064;3.712;2022-08-30T05:33:51;18.30;99.90
32650;DHT22;19055;51.064;3.712;2022-08-30T05:36:19;18.30;99.90
32650;DHT22;19055;51.064;3.712;2022-08-30T05:38:45;18.30;99.90
32650;DHT22;19055;51.064;3.712;2022-08-30T05:41:11;18.30;99.90
32650;DHT22;19055;51.064;3.712;2022-08-30T05:43:38;18.40;99.90
32650;DHT22;19055;51.064;3.712;2022-08-30T05:46:10;18.50;99.90
32650;DHT22;19055;51.064;3.712;2022-08-30T05:48:37;18.50;99.90
32650;DHT22;19055;51.064;3.712;2022-08-30T05:51:05;18.60;99.80
32650;DHT22;19055;51.064;3.712;2022-08-30T05:53:32;18.70;99.50
32650;DHT22;19055;51.064;3.712;2022-08-30T05:56:01;18.80;99.40
32650;DHT22;19055;51.064;3.712;2022-08-30T05:58:27;18.80;99.10
32650;DHT22;19055;51.064;3.712;2022-08-30T06:00:53;18.90;98.90
32650;DHT22;19055;51.064;3.712;2022-08-30T06:03:19;19.00;98.80
32650;DHT22;19055;51.064;3.712;2022-08-30T06:05:45;19.00;98.50
32650;DHT22;19055;51.064;3.712;2022-08-30T06:08:10;19.00;98.40
32650;DHT22;19055;51.064;3.712;2022-08-30T06:10:36;19.10;98.40
32650;DHT22;19055;51.064;3.712;2022-08-30T06:13:02;19.10;98.10
32650;DHT22;19055;51.064;3.712;2022-08-30T06:15:28;19.10;98.00
32650;DHT22;19055;51.064;3.712;2022-08-30T06:17:53;19.20;97.80
32650;DHT22;19055;51.064;3.712;2022-08-30T06:20:19;19.10;97.70
32650;DHT22;19055;51.064;3.712;2022-08-30T06:22:45;19.30;97.80
32650;DHT22;19055;51.064;3.712;2022-08-30T06:25:12;19.40;97.20
32650;DHT22;19055;51.064;3.712;2022-08-30T06:27:37;19.60;96.70
32650;DHT22;19055;51.064;3.712;2022-08-30T06:30:04;19.60;96.40
32650;DHT22;19055;51.064;3.712;2022-08-30T06:32:33;19.70;96.20
32650;DHT22;19055;51.064;3.712;2022-08-30T06:34:59;19.80;96.00
32650;DHT22;19055;51.064;3.712;2022-08-30T06:37:25;19.90;95.70
32650;DHT22;19055;51.064;3.712;2022-08-30T06:39:52;19.90;95.60
32650;DHT22;19055;51.064;3.712;2022-08-30T06:42:18;20.00;95.30
32650;DHT22;19055;51.064;3.712;2022-08-30T06:44:44;19.90;95.10
32650;DHT22;19055;51.064;3.712;2022-08-30T06:47:10;19.90;95.20
32650;DHT22;19055;51.064;3.712;2022-08-30T06:49:36;20.00;95.10
32650;DHT22;19055;51.064;3.712;2022-08-30T06:52:02;20.10;94.80
32650;DHT22;19055;51.064;3.712;2022-08-30T06:54:28;20.20;94.60
32650;DHT22;19055;51.064;3.712;2022-08-30T06:56:54;20.20;94.30
32650;DHT22;19055;51.064;3.712;2022-08-30T06:59:20;20.40;94.30
32650;DHT22;19055;51.064;3.712;2022-08-30T07:01:45;20.20;93.90
32650;DHT22;19055;51.064;3.712;2022-08-30T07:04:11;20.20;94.10
32650;DHT22;19055;51.064;3.712;2022-08-30T07:06:37;20.20;94.10
32650;DHT22;19055;51.064;3.712;2022-08-30T07:09:03;20.40;93.80
32650;DHT22;19055;51.064;3.712;2022-08-30T07:11:41;20.60;93.30
32650;DHT22;19055;51.064;3.712;2022-08-30T07:14:08;20.70;93.00
32650;DHT22;19055;51.064;3.712;2022-08-30T07:16:34;20.80;92.80
32650;DHT22;19055;51.064;3.712;2022-08-30T07:19:00;20.80;92.50
32650;DHT22;19055;51.064;3.712;2022-08-30T07:21:39;20.80;92.40
32650;DHT22;19055;51.064;3.712;2022-08-30T07:24:06;20.90;92.40
32650;DHT22;19055;51.064;3.712;2022-08-30T07:26:47;21.00;92.10
32650;DHT22;19055;51.064;3.712;2022-08-30T07:29:15;21.10;91.90
32650;DHT22;19055;51.064;3.712;2022-08-30T07:31:42;21.20;91.40
32650;DHT22;19055;51.064;3.712;2022-08-30T07:34:08;21.20;91.30
32650;DHT22;19055;51.064;3.712;2022-08-30T07:36:36;21.40;91.00
32650;DHT22;19055;51.064;3.712;2022-08-30T07:39:03;21.40;90.70
32650;DHT22;19055;51.064;3.712;2022-08-30T07:41:34;21.50;90.70
32650;DHT22;19055;51.064;3.712;2022-08-30T07:44:03;21.70;90.30
32650;DHT22;19055;51.064;3.712;2022-08-30T07:46:31;21.90;89.90
32650;DHT22;19055;51.064;3.712;2022-08-30T07:48:58;22.20;88.80
32650;DHT22;19055;51.064;3.712;2022-08-30T07:51:26;22.70;86.90
32650;DHT22;19055;51.064;3.712;2022-08-30T07:53:52;23.10;85.10
32650;DHT22;19055;51.064;3.712;2022-08-30T07:56:19;23.60;82.70
32650;DHT22;19055;51.064;3.712;2022-08-30T07:58:45;24.30;80.20
32650;DHT22;19055;51.064;3.712;2022-08-30T08:01:12;24.10;78.80
32650;DHT22;19055;51.064;3.712;2022-08-30T08:03:39;23.90;79.80
32650;DHT22;19055;51.064;3.712;2022-08-30T08:06:07;24.10;78.30
32650;DHT22;19055;51.064;3.712;2022-08-30T08:08:34;24.40;77.10
32650;DHT22;19055;51.064;3.712;2022-08-30T08:11:17;24.70;75.40
32650;DHT22;19055;51.064;3.712;2022-08-30T08:13:45;24.90;74.60
32650;DHT22;19055;51.064;3.712;2022-08-30T08:16:11;25.50;73.10
32650;DHT22;19055;51.064;3.712;2022-08-30T08:18:37;26.20;70.30
32650;DHT22;19055;51.064;3.712;2022-08-30T08:21:03;26.60;68.00
32650;DHT22;19055;51.064;3.712;2022-08-30T08:23:29;27.10;66.70
32650;DHT22;19055;51.064;3.712;2022-08-30T08:25:55;27.10;64.60
32650;DHT22;19055;51.064;3.712;2022-08-30T08:28:22;27.00;65.30
32650;DHT22;19055;51.064;3.712;2022-08-30T08:30:51;27.50;63.60
32650;DHT22;19055;51.064;3.712;2022-08-30T08:33:17;27.50;62.70
32650;DHT22;19055;51.064;3.712;2022-08-30T08:35:52;26.90;64.50
32650;DHT22;19055;51.064;3.712;2022-08-30T08:38:18;26.90;64.60
32650;DHT22;19055;51.064;3.712;2022-08-30T08:40:56;26.50;64.50
32650;DHT22;19055;51.064;3.712;2022-08-30T08:43:29;26.60;64.80
32650;DHT22;19055;51.064;3.712;2022-08-30T08:48:43;27.10;62.80
32650;DHT22;19055;51.064;3.712;2022-08-30T08:51:13;27.50;61.90
32650;DHT22;19055;51.064;3.712;2022-08-30T08:54:09;27.70;60.90
32650;DHT22;19055;51.064;3.712;2022-08-30T08:56:35;27.70;60.50
32650;DHT22;19055;51.064;3.712;2022-08-30T08:59:07;27.80;60.40
32650;DHT22;19055;51.064;3.712;2022-08-30T09:01:33;27.70;59.90
32650;DHT22;19055;51.064;3.712;2022-08-30T09:04:03;27.80;60.30
32650;DHT22;19055;51.064;3.712;2022-08-30T09:08:59;27.70;60.30
32650;DHT22;19055;51.064;3.712;2022-08-30T09:11:30;28.20;59.50
32650;DHT22;19055;51.064;3.712;2022-08-30T09:13:57;28.30;58.50
32650;DHT22;19055;51.064;3.712;2022-08-30T09:19:25;28.30;58.30
32650;DHT22;19055;51.064;3.712;2022-08-30T09:22:09;28.60;57.20
32650;DHT22;19055;51.064;3.712;2022-08-30T09:24:38;28.90;56.10
32650;DHT22;19055;51.064;3.712;2022-08-30T09:27:18;29.10;55.40
32650;DHT22;19055;51.064;3.712;2022-08-30T09:29:53;29.00;55.90
32650;DHT22;19055;51.064;3.712;2022-08-30T09:32:28;28.60;56.10
32650;DHT22;19055;51.064;3.712;2022-08-30T09:34:55;27.90;57.90
32650;DHT22;19055;51.064;3.712;2022-08-30T09:37:28;27.80;58.10
32650;DHT22;19055;51.064;3.712;2022-08-30T09:39:55;27.80;58.30
32650;DHT22;19055;51.064;3.712;2022-08-30T09:42:25;27.60;58.50
32650;DHT22;19055;51.064;3.712;2022-08-30T09:44:54;27.60;58.90
32650;DHT22;19055;51.064;3.712;2022-08-30T09:47:40;27.80;58.50
32650;DHT22;19055;51.064;3.712;2022-08-30T09:50:18;27.80;58.10
32650;DHT22;19055;51.064;3.712;2022-08-30T09:53:24;27.80;58.10
32650;DHT22;19055;51.064;3.712;2022-08-30T10:04:09;27.10;60.10
32650;DHT22;19055;51.064;3.712;2022-08-30T10:06:50;27.60;58.40
32650;DHT22;19055;51.064;3.712;2022-08-30T10:09:38;27.70;57.50
32650;DHT22;19055;51.064;3.712;2022-08-30T10:12:23;27.50;58.30
32650;DHT22;19055;51.064;3.712;2022-08-30T10:14:57;27.30;58.40
32650;DHT22;19055;51.064;3.712;2022-08-30T10:20:11;27.80;57.60
32650;DHT22;19055;51.064;3.712;2022-08-30T10:25:42;27.40;57.80
32650;DHT22;19055;51.064;3.712;2022-08-30T10:28:15;27.20;58.20
32650;DHT22;19055;51.064;3.712;2022-08-30T10:30:46;27.50;57.80
32650;DHT22;19055;51.064;3.712;2022-08-30T10:33:17;27.90;56.80
32650;DHT22;19055;51.064;3.712;2022-08-30T10:36:00;28.60;54.70
32650;DHT22;19055;51.064;3.712;2022-08-30T10:38:33;28.80;54.50
32650;DHT22;19055;51.064;3.712;2022-08-30T10:43:54;29.00;54.00
32650;DHT22;19055;51.064;3.712;2022-08-30T10:46:38;29.00;54.20
32650;DHT22;19055;51.064;3.712;2022-08-30T10:49:14;28.00;55.20
32650;DHT22;19055;51.064;3.712;2022-08-30T10:51:51;27.60;57.10
32650;DHT22;19055;51.064;3.712;2022-08-30T10:54:22;27.80;56.60
32650;DHT22;19055;51.064;3.712;2022-08-30T10:56:52;27.80;56.40
32650;DHT22;19055;51.064;3.712;2022-08-30T10:59:19;27.90;56.40
32650;DHT22;19055;51.064;3.712;2022-08-30T11:02:13;28.20;55.90
32650;DHT22;19055;51.064;3.712;2022-08-30T11:14:01;27.50;55.80
32650;DHT22;19055;51.064;3.712;2022-08-30T11:16:55;27.60;56.60
32650;DHT22;19055;51.064;3.712;2022-08-30T11:19:38;28.00;54.60
32650;DHT22;19055;51.064;3.712;2022-08-30T11:22:20;27.70;54.90
32650;DHT22;19055;51.064;3.712;2022-08-30T11:30:44;27.80;54.80
32650;DHT22;19055;51.064;3.712;2022-08-30T11:35:48;27.50;55.30
32650;DHT22;19055;51.064;3.712;2022-08-30T11:46:19;27.60;55.10
32650;DHT22;19055;51.064;3.712;2022-08-30T11:54:09;28.10;54.30
32650;DHT22;19055;51.064;3.712;2022-08-30T11:59:43;27.50;54.80
32650;DHT22;19055;51.064;3.712;2022-08-30T12:10:54;27.80;53.80
32650;DHT22;19055;51.064;3.712;2022-08-30T12:18:51;27.60;53.70
32650;DHT22;19055;51.064;3.712;2022-08-30T12:34:34;28.10;52.30
32650;DHT22;19055;51.064;3.712;2022-08-30T12:37:07;27.60;53.50
32650;DHT22;19055;51.064;3.712;2022-08-30T12:39:38;27.70;53.20
32650;DHT22;19055;51.064;3.712;2022-08-30T12:42:25;27.70;53.00
32650;DHT22;19055;51.064;3.712;2022-08-30T12:44:54;28.00;52.50
32650;DHT22;19055;51.064;3.712;2022-08-30T12:47:46;28.10;52.20
32650;DHT22;19055;51.064;3.712;2022-08-30T12:50:21;27.60;52.90
32650;DHT22;19055;51.064;3.712;2022-08-30T12:52:57;27.50;53.20
32650;DHT22;19055;51.064;3.712;2022-08-30T12:55:27;27.30;53.30
32650;DHT22;19055;51.064;3.712;2022-08-30T12:58:10;27.30;53.30
32650;DHT22;19055;51.064;3.712;2022-08-30T13:00:41;27.50;53.70
32650;DHT22;19055;51.064;3.712;2022-08-30T13:03:33;27.90;53.40
32650;DHT22;19055;51.064;3.712;2022-08-30T13:05:59;28.00;52.80
32650;DHT22;19055;51.064;3.712;2022-08-30T13:08:33;27.90;52.30
32650;DHT22;19055;51.064;3.712;2022-08-30T13:21:57;27.60;53.00
32650;DHT22;19055;51.064;3.712;2022-08-30T13:24:24;27.50;53.00
32650;DHT22;19055;51.064;3.712;2022-08-30T13:26:50;27.50;52.90
32650;DHT22;19055;51.064;3.712;2022-08-30T13:29:20;27.50;53.10
32650;DHT22;19055;51.064;3.712;2022-08-30T13:31:47;27.50;52.90
32650;DHT22;19055;51.064;3.712;2022-08-30T13:34:13;27.50;52.40
32650;DHT22;19055;51.064;3.712;2022-08-30T13:36:46;27.40;52.40
32650;DHT22;19055;51.064;3.712;2022-08-30T13:39:12;27.30;53.00
32650;DHT22;19055;51.064;3.712;2022-08-30T13:41:38;27.30;53.30
32650;DHT22;19055;51.064;3.712;2022-08-30T13:44:04;27.30;53.50
32650;DHT22;19055;51.064;3.712;2022-08-30T13:46:31;27.30;53.00
32650;DHT22;19055;51.064;3.712;2022-08-30T13:49:05;27.00;52.50
32650;DHT22;19055;51.064;3.712;2022-08-30T13:51:32;26.90;53.50
32650;DHT22;19055;51.064;3.712;2022-08-30T13:53:58;26.90;53.60
32650;DHT22;19055;51.064;3.712;2022-08-30T13:56:26;26.90;53.70
32650;DHT22;19055;51.064;3.712;2022-08-30T13:58:59;27.00;53.60
32650;DHT22;19055;51.064;3.712;2022-08-30T14:01:26;27.10;53.00
32650;DHT22;19055;51.064;3.712;2022-08-30T14:03:52;26.90;52.70
32650;DHT22;19055;51.064;3.712;2022-08-30T14:06:17;26.70;53.10
32650;DHT22;19055;51.064;3.712;2022-08-30T14:08:43;26.70;53.80
32650;DHT22;19055;51.064;3.712;2022-08-30T14:11:10;26.60;54.00
32650;DHT22;19055;51.064;3.712;2022-08-30T14:13:38;26.60;54.40
32650;DHT22;19055;51.064;3.712;2022-08-30T14:16:06;26.60;54.20
32650;DHT22;19055;51.064;3.712;2022-08-30T14:18:32;26.60;53.80
32650;DHT22;19055;51.064;3.712;2022-08-30T14:20:58;26.60;54.30
32650;DHT22;19055;51.064;3.712;2022-08-30T14:23:25;26.60;53.80
32650;DHT22;19055;51.064;3.712;2022-08-30T14:25:52;26.70;53.90
32650;DHT22;19055;51.064;3.712;2022-08-30T14:28:18;26.70;53.50
32650;DHT22;19055;51.064;3.712;2022-08-30T14:30:44;26.70;54.20
32650;DHT22;19055;51.064;3.712;2022-08-30T14:33:10;26.70;54.20
32650;DHT22;19055;51.064;3.712;2022-08-30T14:35:36;26.70;54.00
32650;DHT22;19055;51.064;3.712;2022-08-30T14:38:01;26.60;54.20
32650;DHT22;19055;51.064;3.712;2022-08-30T14:40:27;26.60;54.20
32650;DHT22;19055;51.064;3.712;2022-08-30T14:42:53;26.50;54.30
32650;DHT22;19055;51.064;3.712;2022-08-30T14:45:19;26.60;54.30
32650;DHT22;19055;51.064;3.712;2022-08-30T14:47:45;26.60;54.50
32650;DHT22;19055;51.064;3.712;2022-08-30T14:50:11;26.60;54.10
32650;DHT22;19055;51.064;3.712;2022-08-30T14:52:37;26.60;54.30
32650;DHT22;19055;51.064;3.712;2022-08-30T14:55:07;26.60;54.70
32650;DHT22;19055;51.064;3.712;2022-08-30T14:57:33;26.60;54.50
32650;DHT22;19055;51.064;3.712;2022-08-30T14:59:58;26.60;54.60
32650;DHT22;19055;51.064;3.712;2022-08-30T15:02:24;26.80;54.90
32650;DHT22;19055;51.064;3.712;2022-08-30T15:04:50;26.80;54.30
32650;DHT22;19055;51.064;3.712;2022-08-30T15:07:16;26.70;54.60
32650;DHT22;19055;51.064;3.712;2022-08-30T15:09:42;26.60;54.70
32650;DHT22;19055;51.064;3.712;2022-08-30T15:12:08;26.60;55.10
32650;DHT22;19055;51.064;3.712;2022-08-30T15:14:34;26.70;54.80
32650;DHT22;19055;51.064;3.712;2022-08-30T15:17:01;26.70;54.80
32650;DHT22;19055;51.064;3.712;2022-08-30T15:19:28;26.60;54.70
32650;DHT22;19055;51.064;3.712;2022-08-30T15:21:58;26.40;54.30
32650;DHT22;19055;51.064;3.712;2022-08-30T15:24:25;26.50;54.50
32650;DHT22;19055;51.064;3.712;2022-08-30T15:26:51;26.50;54.40
32650;DHT22;19055;51.064;3.712;2022-08-30T15:29:18;26.40;54.10
32650;DHT22;19055;51.064;3.712;2022-08-30T15:31:45;26.30;54.50
32650;DHT22;19055;51.064;3.712;2022-08-30T15:34:13;26.30;54.30
32650;DHT22;19055;51.064;3.712;2022-08-30T15:36:41;26.40;54.20
32650;DHT22;19055;51.064;3.712;2022-08-30T15:39:07;26.50;53.90
32650;DHT22;19055;51.064;3.712;2022-08-30T15:41:33;26.50;53.70
32650;DHT22;19055;51.064;3.712;2022-08-30T15:44:01;26.50;53.10
32650;DHT22;19055;51.064;3.712;2022-08-30T15:46:35;26.50;53.20
32650;DHT22;19055;51.064;3.712;2022-08-30T15:49:10;26.40;53.30
32650;DHT22;19055;51.064;3.712;2022-08-30T15:51:36;26.20;53.20
32650;DHT22;19055;51.064;3.712;2022-08-30T15:54:03;26.20;53.50
32650;DHT22;19055;51.064;3.712;2022-08-30T15:56:30;26.10;53.40
32650;DHT22;19055;51.064;3.712;2022-08-30T15:58:56;26.10;53.50
32650;DHT22;19055;51.064;3.712;2022-08-30T16:01:23;26.00;53.70
32650;DHT22;19055;51.064;3.712;2022-08-30T16:03:49;26.00;53.80
32650;DHT22;19055;51.064;3.712;2022-08-30T16:06:18;25.90;53.90
32650;DHT22;19055;51.064;3.712;2022-08-30T16:08:44;25.80;53.90
32650;DHT22;19055;51.064;3.712;2022-08-30T16:11:11;25.70;53.80
32650;DHT22;19055;51.064;3.712;2022-08-30T16:13:38;25.60;53.80
32650;DHT22;19055;51.064;3.712;2022-08-30T16:16:06;25.60;54.10
32650;DHT22;19055;51.064;3.712;2022-08-30T16:18:32;25.60;54.10
32650;DHT22;19055;51.064;3.712;2022-08-30T16:21:26;25.50;54.10
32650;DHT22;19055;51.064;3.712;2022-08-30T16:23:57;25.50;54.00
32650;DHT22;19055;51.064;3.712;2022-08-30T16:26:24;25.40;54.10
32650;DHT22;19055;51.064;3.712;2022-08-30T16:28:50;25.40;54.20
32650;DHT22;19055;51.064;3.712;2022-08-30T16:31:17;25.40;54.10
32650;DHT22;19055;51.064;3.712;2022-08-30T16:33:43;25.30;53.90
32650;DHT22;19055;51.064;3.712;2022-08-30T16:36:10;25.40;54.10
32650;DHT22;19055;51.064;3.712;2022-08-30T16:38:37;25.40;54.00
32650;DHT22;19055;51.064;3.712;2022-08-30T16:41:10;25.30;54.20
32650;DHT22;19055;51.064;3.712;2022-08-30T16:43:36;25.30;54.10
32650;DHT22;19055;51.064;3.712;2022-08-30T16:46:05;25.40;54.40
32650;DHT22;19055;51.064;3.712;2022-08-30T16:48:31;25.30;53.80
32650;DHT22;19055;51.064;3.712;2022-08-30T16:50:57;25.30;53.80
32650;DHT22;19055;51.064;3.712;2022-08-30T16:53:24;25.40;53.60
32650;DHT22;19055;51.064;3.712;2022-08-30T16:55:51;25.30;53.40
32650;DHT22;19055;51.064;3.712;2022-08-30T16:58:17;25.20;53.80
32650;DHT22;19055;51.064;3.712;2022-08-30T17:00:49;25.20;53.70
32650;DHT22;19055;51.064;3.712;2022-08-30T17:03:16;25.10;54.00
32650;DHT22;19055;51.064;3.712;2022-08-30T17:05:43;25.00;53.50
32650;DHT22;19055;51.064;3.712;2022-08-30T17:08:09;24.90;53.60
32650;DHT22;19055;51.064;3.712;2022-08-30T17:10:36;24.80;53.80
32650;DHT22;19055;51.064;3.712;2022-08-30T17:13:02;24.80;53.70
32650;DHT22;19055;51.064;3.712;2022-08-30T17:15:28;24.80;53.90